createdAt,value
2019-04-10T00:00:32.240Z,9.00
2019-04-10T00:01:40.390Z,9.00
2019-04-10T00:02:45.726Z,9.00
2019-04-10T00:03:50.445Z,8.90
2019-04-10T00:04:55.721Z,8.90
2019-04-10T00:06:00.479Z,8.90
2019-04-10T00:07:12.681Z,8.90
2019-04-10T00:08:10.928Z,8.90
2019-04-10T00:09:15.156Z,8.90
2019-04-10T00:10:19.440Z,8.90
2019-04-10T00:11:24.806Z,8.80
2019-04-10T00:12:29.658Z,8.80
2019-04-10T00:13:34.377Z,8.80
2019-04-10T00:14:38.739Z,8.80
2019-04-10T00:15:43.008Z,8.80
2019-04-10T00:16:47.251Z,8.80
2019-04-10T00:17:51.562Z,8.80
2019-04-10T00:18:56.164Z,8.70
2019-04-10T00:20:00.417Z,8.70
2019-04-10T00:21:05.071Z,8.70
2019-04-10T00:22:09.715Z,8.60
2019-04-10T00:23:15.088Z,8.60
2019-04-10T00:24:19.862Z,8.50
2019-04-10T00:25:24.506Z,8.60
2019-04-10T00:26:28.652Z,8.60
2019-04-10T00:27:33.010Z,8.60
2019-04-10T00:28:37.232Z,8.60
2019-04-10T00:29:42.451Z,8.60
2019-04-10T00:30:46.776Z,8.50
2019-04-10T00:31:51.070Z,8.60
2019-04-10T00:32:56.353Z,8.50
2019-04-10T00:34:01.056Z,8.50
2019-04-10T00:35:06.383Z,8.50
2019-04-10T00:36:12.037Z,8.50
2019-04-10T00:37:23.853Z,8.50
2019-04-10T00:38:22.382Z,8.50
2019-04-10T00:39:26.607Z,8.40
2019-04-10T00:40:31.155Z,8.40
2019-04-10T00:41:36.437Z,8.40
2019-04-10T00:42:41.139Z,8.40
2019-04-10T00:43:45.443Z,8.40
2019-04-10T00:44:50.077Z,8.40
2019-04-10T00:45:54.399Z,8.40
2019-04-10T00:46:58.981Z,8.40
2019-04-10T00:48:03.696Z,8.40
2019-04-10T00:49:08.009Z,8.40
2019-04-10T00:50:12.621Z,8.40
2019-04-10T00:51:17.258Z,8.40
2019-04-10T00:52:21.862Z,8.40
2019-04-10T00:53:26.031Z,8.40
2019-04-10T00:54:30.938Z,8.40
2019-04-10T00:55:35.631Z,8.30
2019-04-10T00:56:41.653Z,8.30
2019-04-10T00:57:45.981Z,8.30
2019-04-10T00:58:51.191Z,8.30
2019-04-10T00:59:55.531Z,8.20
2019-04-10T01:00:59.752Z,8.20
2019-04-10T01:02:04.570Z,8.20
2019-04-10T01:03:09.373Z,8.20
2019-04-10T01:04:14.013Z,8.20
2019-04-10T01:05:19.348Z,8.20
2019-04-10T01:06:24.120Z,8.10
2019-04-10T01:07:36.705Z,8.10
2019-04-10T01:08:34.891Z,8.10
2019-04-10T01:09:39.646Z,8.10
2019-04-10T01:10:44.250Z,8.10
2019-04-10T01:11:49.673Z,8.10
2019-04-10T01:12:54.455Z,8.10
2019-04-10T01:13:59.125Z,8.10
2019-04-10T01:15:04.606Z,8.10
2019-04-10T01:16:09.208Z,8.00
2019-04-10T01:17:13.705Z,8.00
2019-04-10T01:18:17.953Z,8.00
2019-04-10T01:19:22.167Z,8.00
2019-04-10T01:20:26.388Z,8.00
2019-04-10T01:21:30.614Z,8.00
2019-04-10T01:22:35.095Z,7.90
2019-04-10T01:23:39.449Z,7.90
2019-04-10T01:24:43.934Z,7.90
2019-04-10T01:25:48.411Z,7.90
2019-04-10T01:26:53.737Z,7.90
2019-04-10T01:27:58.439Z,7.90
2019-04-10T01:29:02.983Z,7.80
2019-04-10T01:30:08.605Z,7.90
2019-04-10T01:31:13.026Z,7.80
2019-04-10T01:32:17.460Z,7.80
2019-04-10T01:33:22.742Z,7.80
2019-04-10T01:34:27.492Z,7.80
2019-04-10T01:35:32.128Z,7.80
2019-04-10T01:36:37.295Z,7.80
2019-04-10T01:37:49.471Z,7.70
2019-04-10T01:38:47.639Z,7.70
2019-04-10T01:39:52.755Z,7.70
2019-04-10T01:40:57.047Z,7.70
2019-04-10T01:42:01.285Z,7.70
2019-04-10T01:43:11.493Z,7.70
2019-04-10T01:44:11.568Z,7.60
2019-04-10T01:45:15.787Z,7.60
2019-04-10T01:46:20.183Z,7.60
2019-04-10T01:47:24.350Z,7.60
2019-04-10T01:48:28.594Z,7.50
2019-04-10T01:49:33.589Z,7.50
2019-04-10T01:50:38.832Z,7.50
2019-04-10T01:51:43.510Z,7.50
2019-04-10T01:52:47.865Z,7.50
2019-04-10T01:53:52.384Z,7.50
2019-04-10T01:54:57.558Z,7.50
2019-04-10T01:56:02.876Z,7.50
2019-04-10T01:57:08.129Z,7.40
2019-04-10T01:58:17.008Z,7.40
2019-04-10T01:59:23.611Z,7.40
2019-04-10T02:00:28.482Z,7.40
2019-04-10T02:01:37.276Z,7.40
2019-04-10T02:02:50.091Z,7.40
2019-04-10T02:03:54.378Z,7.30
2019-04-10T02:04:58.579Z,7.30
2019-04-10T02:06:03.126Z,7.30
2019-04-10T02:07:07.631Z,7.30
2019-04-10T02:08:14.351Z,7.30
2019-04-10T02:09:17.831Z,7.30
2019-04-10T02:10:22.080Z,7.30
2019-04-10T02:11:26.303Z,7.20
2019-04-10T02:12:30.527Z,7.20
2019-04-10T02:13:35.783Z,7.20
2019-04-10T02:14:40.620Z,7.20
2019-04-10T02:15:46.000Z,7.20
2019-04-10T02:16:51.433Z,7.20
2019-04-10T02:17:55.811Z,7.10
2019-04-10T02:19:00.065Z,7.20
2019-04-10T02:20:04.948Z,7.10
2019-04-10T02:21:09.582Z,7.10
2019-04-10T02:22:14.139Z,7.10
2019-04-10T02:23:19.358Z,7.10
2019-04-10T02:24:25.125Z,7.10
2019-04-10T02:25:30.554Z,7.00
2019-04-10T02:26:35.861Z,7.00
2019-04-10T02:27:40.573Z,7.00
2019-04-10T02:28:45.000Z,7.00
2019-04-10T02:29:50.241Z,7.00
2019-04-10T02:30:54.643Z,7.00
2019-04-10T02:31:59.821Z,7.00
2019-04-10T02:33:04.387Z,6.90
2019-04-10T02:34:10.159Z,6.90
2019-04-10T02:35:17.189Z,6.90
2019-04-10T02:36:21.290Z,6.90
2019-04-10T02:37:27.073Z,6.90
2019-04-10T02:38:48.942Z,6.90
2019-04-10T02:39:42.455Z,6.90
2019-04-10T02:40:43.340Z,6.80
2019-04-10T02:41:47.818Z,6.80
2019-04-10T02:42:52.123Z,6.80
2019-04-10T02:43:57.863Z,6.80
2019-04-10T02:45:02.802Z,6.80
2019-04-10T02:46:08.337Z,6.80
2019-04-10T02:47:13.018Z,6.80
2019-04-10T02:48:19.215Z,6.80
2019-04-10T02:49:24.724Z,6.70
2019-04-10T02:50:29.409Z,6.70
2019-04-10T02:51:35.056Z,6.70
2019-04-10T02:52:41.120Z,6.70
2019-04-10T02:53:46.060Z,6.60
2019-04-10T02:54:51.110Z,6.60
2019-04-10T02:55:55.840Z,6.60
2019-04-10T02:57:01.020Z,6.60
2019-04-10T02:58:06.073Z,6.60
2019-04-10T02:59:11.267Z,6.60
2019-04-10T03:00:15.602Z,6.60
2019-04-10T03:01:19.976Z,6.60
2019-04-10T03:02:24.368Z,6.60
2019-04-10T03:03:29.832Z,6.50
2019-04-10T03:04:35.165Z,6.50
2019-04-10T03:05:40.617Z,6.50
2019-04-10T03:06:45.282Z,6.50
2019-04-10T03:07:50.208Z,6.50
2019-04-10T03:09:07.268Z,6.50
2019-04-10T03:10:14.229Z,6.40
2019-04-10T03:11:10.632Z,6.40
2019-04-10T03:12:13.025Z,6.40
2019-04-10T03:13:19.655Z,6.40
2019-04-10T03:14:24.399Z,6.40
2019-04-10T03:15:29.689Z,6.40
2019-04-10T03:16:35.391Z,6.40
2019-04-10T03:17:40.059Z,6.40
2019-04-10T03:18:45.195Z,6.40
2019-04-10T03:19:49.772Z,6.30
2019-04-10T03:20:54.331Z,6.30
2019-04-10T03:21:59.615Z,6.30
2019-04-10T03:23:03.931Z,6.30
2019-04-10T03:24:08.188Z,6.30
2019-04-10T03:25:12.871Z,6.30
2019-04-10T03:26:17.331Z,6.30
2019-04-10T03:27:22.657Z,6.30
2019-04-10T03:28:27.101Z,6.20
2019-04-10T03:29:31.640Z,6.20
2019-04-10T03:30:36.950Z,6.20
2019-04-10T03:31:41.893Z,6.20
2019-04-10T03:33:02.588Z,6.20
2019-04-10T03:34:21.860Z,6.20
2019-04-10T03:35:47.896Z,6.20
2019-04-10T03:36:52.267Z,6.20
2019-04-10T03:37:57.416Z,6.20
2019-04-10T03:39:04.870Z,6.10
2019-04-10T03:40:07.620Z,6.10
2019-04-10T03:41:12.265Z,6.10
2019-04-10T03:42:16.908Z,6.10
2019-04-10T03:43:21.552Z,6.10
2019-04-10T03:44:26.964Z,6.10
2019-04-10T03:45:31.299Z,6.10
2019-04-10T03:46:38.294Z,6.10
2019-04-10T03:47:41.820Z,6.00
2019-04-10T03:48:47.278Z,6.00
2019-04-10T03:49:51.923Z,6.00
2019-04-10T03:50:57.278Z,6.00
2019-04-10T03:52:03.064Z,6.00
2019-04-10T03:53:07.628Z,6.00
2019-04-10T03:54:13.056Z,6.00
2019-04-10T03:55:17.416Z,6.00
2019-04-10T03:56:21.637Z,6.00
2019-04-10T03:57:26.792Z,6.00
2019-04-10T03:58:31.517Z,5.90
2019-04-10T03:59:36.053Z,5.90
2019-04-10T04:00:42.513Z,5.90
2019-04-10T04:01:47.214Z,5.90
2019-04-10T04:02:51.809Z,5.90
2019-04-10T04:03:57.220Z,5.90
2019-04-10T04:05:02.598Z,5.90
2019-04-10T04:06:07.072Z,5.90
2019-04-10T04:07:11.354Z,5.90
2019-04-10T04:08:15.620Z,5.80
2019-04-10T04:09:19.876Z,5.80
2019-04-10T04:10:24.620Z,5.80
2019-04-10T04:11:29.372Z,5.80
2019-04-10T04:12:33.641Z,5.80
2019-04-10T04:13:37.880Z,5.80
2019-04-10T04:14:42.148Z,5.80
2019-04-10T04:15:46.389Z,5.70
2019-04-10T04:16:51.245Z,5.80
2019-04-10T04:17:55.560Z,5.70
2019-04-10T04:18:59.797Z,5.70
2019-04-10T04:20:04.416Z,5.70
2019-04-10T04:21:09.688Z,5.70
2019-04-10T04:22:14.626Z,5.70
2019-04-10T04:23:19.397Z,5.70
2019-04-10T04:24:26.517Z,5.70
2019-04-10T04:25:30.898Z,5.60
2019-04-10T04:26:35.106Z,5.60
2019-04-10T04:27:39.834Z,5.60
2019-04-10T04:28:44.136Z,5.60
2019-04-10T04:29:48.447Z,5.60
2019-04-10T04:30:53.808Z,5.60
2019-04-10T04:31:59.011Z,5.60
2019-04-10T04:33:03.321Z,5.60
2019-04-10T04:34:07.546Z,5.60
2019-04-10T04:35:11.779Z,5.60
2019-04-10T04:36:16.086Z,5.60
2019-04-10T04:37:20.827Z,5.60
2019-04-10T04:38:25.602Z,5.50
2019-04-10T04:39:31.209Z,5.60
2019-04-10T04:40:35.722Z,5.50
2019-04-10T04:41:40.158Z,5.50
2019-04-10T04:42:44.375Z,5.50
2019-04-10T04:43:49.055Z,5.50
2019-04-10T04:44:54.297Z,5.50
2019-04-10T04:45:59.194Z,5.50
2019-04-10T04:47:03.477Z,5.50
2019-04-10T04:48:07.805Z,5.50
2019-04-10T04:49:12.131Z,5.50
2019-04-10T04:50:16.388Z,5.50
2019-04-10T04:51:20.634Z,5.50
2019-04-10T04:52:25.804Z,5.50
2019-04-10T04:53:30.225Z,5.50
2019-04-10T04:54:34.575Z,5.50
2019-04-10T04:55:39.455Z,5.50
2019-04-10T04:56:44.250Z,5.50
2019-04-10T04:57:49.164Z,5.40
2019-04-10T04:58:53.867Z,5.50
2019-04-10T04:59:58.969Z,5.50
2019-04-10T05:01:04.225Z,5.40
2019-04-10T05:02:08.563Z,5.50
2019-04-10T05:03:12.832Z,5.50
2019-04-10T05:04:17.320Z,5.50
2019-04-10T05:05:21.612Z,5.50
2019-04-10T05:06:26.585Z,5.50
2019-04-10T05:07:31.281Z,5.50
2019-04-10T05:08:35.510Z,5.50
2019-04-10T05:09:40.766Z,5.50
2019-04-10T05:10:45.779Z,5.50
2019-04-10T05:11:50.970Z,5.50
2019-04-10T05:12:55.351Z,5.50
2019-04-10T05:13:59.588Z,5.50
2019-04-10T05:15:04.487Z,5.50
2019-04-10T05:16:08.803Z,5.50
2019-04-10T05:17:15.597Z,5.50
2019-04-10T05:18:19.085Z,5.50
2019-04-10T05:19:23.328Z,5.50
2019-04-10T05:20:40.341Z,5.60
2019-04-10T05:21:33.447Z,5.60
2019-04-10T05:22:37.691Z,5.60
2019-04-10T05:23:42.828Z,5.60
2019-04-10T05:24:47.199Z,5.60
2019-04-10T05:25:51.933Z,5.70
2019-04-10T05:26:57.105Z,5.70
2019-04-10T05:28:01.612Z,5.80
2019-04-10T05:29:05.913Z,5.80
2019-04-10T05:30:10.561Z,5.80
2019-04-10T05:31:15.107Z,5.80
2019-04-10T05:32:19.423Z,5.90
2019-04-10T05:33:24.631Z,5.90
2019-04-10T05:34:29.601Z,5.90
2019-04-10T05:35:34.831Z,6.00
2019-04-10T05:36:39.971Z,6.00
2019-04-10T05:37:44.284Z,6.00
2019-04-10T05:38:48.581Z,6.00
2019-04-10T05:39:53.938Z,6.00
2019-04-10T05:40:59.235Z,6.00
2019-04-10T05:42:04.257Z,6.10
2019-04-10T05:43:09.281Z,6.10
2019-04-10T05:44:13.724Z,6.10
2019-04-10T05:45:18.001Z,6.10
2019-04-10T05:46:23.090Z,6.20
2019-04-10T05:47:28.300Z,6.20
2019-04-10T05:48:33.468Z,6.20
2019-04-10T05:49:37.755Z,6.20
2019-04-10T05:50:52.942Z,6.30
2019-04-10T05:51:47.978Z,6.30
2019-04-10T05:52:52.320Z,6.30
2019-04-10T05:53:56.536Z,6.30
2019-04-10T05:55:00.762Z,6.30
2019-04-10T05:56:05.621Z,6.40
2019-04-10T05:57:10.364Z,6.40
2019-04-10T05:58:15.461Z,6.50
2019-04-10T05:59:19.768Z,6.50
2019-04-10T06:00:24.990Z,6.60
2019-04-10T06:01:35.053Z,6.70
2019-04-10T06:02:36.227Z,6.70
2019-04-10T06:03:40.851Z,6.90
2019-04-10T06:04:45.476Z,6.90
2019-04-10T06:05:50.713Z,6.90
2019-04-10T06:06:55.011Z,7.00
2019-04-10T06:07:59.370Z,7.10
2019-04-10T06:09:04.484Z,7.30
2019-04-10T06:10:10.676Z,7.40
2019-04-10T06:11:15.182Z,7.50
2019-04-10T06:12:20.311Z,7.70
2019-04-10T06:13:25.606Z,7.90
2019-04-10T06:14:30.380Z,8.20
2019-04-10T06:15:35.051Z,8.70
2019-04-10T06:16:40.473Z,9.30
2019-04-10T06:17:44.918Z,9.80
2019-04-10T06:18:49.342Z,10.10
2019-04-10T06:19:53.638Z,10.40
2019-04-10T06:20:58.821Z,10.80
2019-04-10T06:22:03.248Z,11.30
2019-04-10T06:23:07.603Z,12.00
2019-04-10T06:24:12.002Z,12.60
2019-04-10T06:25:17.065Z,13.40
2019-04-10T06:26:23.574Z,14.10
2019-04-10T06:27:28.315Z,14.70
2019-04-10T06:28:32.641Z,15.00
2019-04-10T06:29:37.162Z,15.30
2019-04-10T06:30:41.904Z,15.50
2019-04-10T06:31:47.161Z,15.40
2019-04-10T06:32:51.657Z,15.40
2019-04-10T06:33:56.316Z,15.40
2019-04-10T06:35:01.778Z,15.30
2019-04-10T06:36:06.167Z,15.50
2019-04-10T06:37:10.427Z,15.90
2019-04-10T06:38:14.810Z,16.10
2019-04-10T06:39:19.052Z,16.20
2019-04-10T06:40:25.809Z,16.30
2019-04-10T06:41:29.195Z,16.00
2019-04-10T06:42:44.760Z,15.80
2019-04-10T06:43:39.344Z,15.60
2019-04-10T06:44:44.546Z,15.60
2019-04-10T06:45:48.832Z,15.80
2019-04-10T06:46:53.057Z,16.10
2019-04-10T06:47:58.402Z,16.50
2019-04-10T06:49:03.187Z,16.70
2019-04-10T06:50:07.642Z,16.70
2019-04-10T06:51:12.311Z,16.80
2019-04-10T06:52:16.707Z,17.10
2019-04-10T06:53:21.052Z,17.40
2019-04-10T06:54:25.271Z,17.60
2019-04-10T06:55:30.191Z,17.70
2019-04-10T06:56:35.441Z,17.80
2019-04-10T06:57:48.139Z,17.70
2019-04-10T06:58:45.595Z,17.90
2019-04-10T06:59:50.336Z,17.90
2019-04-10T07:00:55.169Z,17.70
2019-04-10T07:02:13.168Z,17.40
2019-04-10T07:03:06.532Z,17.20
2019-04-10T07:04:11.508Z,17.10
2019-04-10T07:05:16.459Z,16.90
2019-04-10T07:06:22.783Z,16.70
2019-04-10T07:07:40.687Z,16.60
2019-04-10T07:08:32.500Z,16.60
2019-04-10T07:09:37.842Z,16.40
2019-04-10T07:10:52.044Z,16.40
2019-04-10T07:11:53.489Z,16.40
2019-04-10T07:12:53.987Z,16.60
2019-04-10T07:13:58.487Z,16.90
2019-04-10T07:15:04.255Z,16.80
2019-04-10T07:16:10.224Z,16.60
2019-04-10T07:17:15.893Z,16.50
2019-04-10T07:18:21.836Z,16.40
2019-04-10T07:19:26.221Z,16.60
2019-04-10T07:20:31.563Z,17.10
2019-04-10T07:21:37.109Z,17.60
2019-04-10T07:22:46.571Z,17.90
2019-04-10T07:23:48.944Z,18.10
2019-04-10T07:24:54.361Z,18.30
2019-04-10T07:25:58.757Z,18.80
2019-04-10T07:27:04.615Z,19.20
2019-04-10T07:28:10.863Z,19.50
2019-04-10T07:29:18.691Z,19.70
2019-04-10T07:30:24.090Z,20.00
2019-04-10T07:31:27.611Z,20.40
2019-04-10T07:32:31.992Z,20.70
2019-04-10T07:33:37.071Z,21.00
2019-04-10T07:34:42.482Z,21.10
2019-04-10T07:35:46.836Z,21.20
2019-04-10T07:36:51.944Z,21.10
2019-04-10T07:37:58.018Z,20.80
2019-04-10T07:39:02.104Z,20.50
2019-04-10T07:40:07.833Z,20.30
2019-04-10T07:41:19.761Z,19.90
2019-04-10T07:42:26.776Z,19.50
2019-04-10T07:43:27.216Z,19.40
2019-04-10T07:44:30.330Z,19.60
2019-04-10T07:45:35.521Z,19.70
2019-04-10T07:46:40.197Z,20.00
2019-04-10T07:47:44.403Z,20.60
2019-04-10T07:48:48.662Z,21.10
2019-04-10T07:49:52.887Z,21.50
2019-04-10T07:50:57.125Z,21.50
2019-04-10T07:52:02.460Z,21.30
2019-04-10T07:53:08.314Z,21.20
2019-04-10T07:54:17.894Z,21.50
2019-04-10T07:55:19.052Z,21.80
2019-04-10T07:56:24.511Z,22.20
2019-04-10T07:57:28.812Z,22.50
2019-04-10T07:58:33.087Z,22.80
2019-04-10T07:59:37.595Z,23.20
2019-04-10T08:00:42.855Z,23.70
2019-04-10T08:01:47.414Z,24.20
2019-04-10T08:02:53.137Z,23.80
2019-04-10T08:03:57.632Z,23.60
2019-04-10T08:05:02.382Z,23.80
2019-04-10T08:06:06.800Z,23.70
2019-04-10T08:07:15.399Z,24.20
2019-04-10T08:08:17.163Z,24.70
2019-04-10T08:09:21.442Z,25.20
2019-04-10T08:10:26.417Z,25.30
2019-04-10T08:11:31.642Z,25.90
2019-04-10T08:12:42.437Z,26.10
2019-04-10T08:13:41.847Z,26.50
2019-04-10T08:14:46.385Z,26.90
2019-04-10T08:15:50.664Z,27.50
2019-04-10T08:16:55.299Z,27.80
2019-04-10T08:18:00.411Z,27.90
2019-04-10T08:19:04.698Z,28.30
2019-04-10T08:20:09.903Z,28.90
2019-04-10T08:21:14.265Z,29.40
2019-04-10T08:22:18.504Z,29.80
2019-04-10T08:23:23.811Z,29.40
2019-04-10T08:24:28.228Z,29.50
2019-04-10T08:25:33.274Z,29.70
2019-04-10T08:26:38.773Z,30.00
2019-04-10T08:27:43.804Z,30.20
2019-04-10T08:28:48.204Z,30.50
2019-04-10T08:29:52.670Z,30.80
2019-04-10T08:30:57.573Z,31.20
2019-04-10T08:32:02.313Z,31.40
2019-04-10T08:33:07.685Z,31.00
2019-04-10T08:34:12.071Z,30.30
2019-04-10T08:35:17.364Z,30.10
2019-04-10T08:36:21.720Z,30.30
2019-04-10T08:37:26.279Z,30.60
2019-04-10T08:38:30.571Z,30.50
2019-04-10T08:39:41.198Z,31.00
2019-04-10T08:40:40.727Z,31.40
2019-04-10T08:41:45.818Z,31.40
2019-04-10T08:42:51.337Z,31.60
2019-04-10T08:43:56.607Z,31.80
2019-04-10T08:45:01.047Z,31.70
2019-04-10T08:46:05.364Z,31.50
2019-04-10T08:47:10.893Z,31.40
2019-04-10T08:48:15.530Z,31.70
2019-04-10T08:49:21.290Z,32.00
2019-04-10T08:50:26.010Z,32.50
2019-04-10T08:51:31.040Z,32.40
2019-04-10T08:52:35.456Z,32.00
2019-04-10T08:53:39.691Z,31.90
2019-04-10T08:54:44.633Z,31.70
2019-04-10T08:55:49.020Z,32.20
2019-04-10T08:56:53.237Z,32.70
2019-04-10T08:57:58.556Z,33.00
2019-04-10T08:59:03.440Z,33.10
2019-04-10T09:00:08.582Z,33.40
2019-04-10T09:01:13.336Z,33.10
2019-04-10T09:02:18.048Z,33.20
2019-04-10T09:03:22.526Z,32.90
2019-04-10T09:04:26.796Z,33.20
2019-04-10T09:05:31.058Z,33.70
2019-04-10T09:06:35.620Z,34.30
2019-04-10T09:07:40.150Z,34.30
2019-04-10T09:08:45.340Z,34.10
2019-04-10T09:09:49.939Z,33.90
2019-04-10T09:10:54.522Z,33.70
2019-04-10T09:11:59.822Z,33.90
2019-04-10T09:13:04.303Z,34.40
2019-04-10T09:14:08.734Z,34.80
2019-04-10T09:15:13.907Z,35.20
2019-04-10T09:16:18.436Z,35.60
2019-04-10T09:17:22.843Z,35.90
2019-04-10T09:18:27.428Z,36.30
2019-04-10T09:19:31.644Z,36.50
2019-04-10T09:20:35.911Z,36.40
2019-04-10T09:21:40.135Z,35.70
2019-04-10T09:23:07.377Z,35.40
2019-04-10T09:23:52.873Z,35.40
2019-04-10T09:24:56.129Z,35.60
2019-04-10T09:26:01.707Z,35.50
2019-04-10T09:27:06.043Z,35.10
2019-04-10T09:28:10.525Z,34.90
2019-04-10T09:29:15.971Z,34.50
2019-04-10T09:30:20.543Z,34.10
2019-04-10T09:31:25.914Z,33.70
2019-04-10T09:32:30.668Z,33.30
2019-04-10T09:33:35.025Z,33.50
2019-04-10T09:34:40.067Z,33.60
2019-04-10T09:35:44.690Z,33.80
2019-04-10T09:36:49.205Z,34.00
2019-04-10T09:37:54.561Z,34.30
2019-04-10T09:38:59.191Z,34.60
2019-04-10T09:40:03.638Z,35.10
2019-04-10T09:41:08.224Z,35.70
2019-04-10T09:42:12.460Z,35.60
2019-04-10T09:43:17.716Z,35.60
2019-04-10T09:44:22.919Z,36.00
2019-04-10T09:45:28.411Z,35.50
2019-04-10T09:46:33.195Z,34.20
2019-04-10T09:47:37.543Z,34.20
2019-04-10T09:48:42.155Z,34.60
2019-04-10T09:49:47.163Z,34.10
2019-04-10T09:50:52.510Z,34.50
2019-04-10T09:51:56.884Z,35.10
2019-04-10T09:53:02.078Z,35.60
2019-04-10T09:54:06.401Z,36.00
2019-04-10T09:55:11.622Z,36.40
2019-04-10T09:56:16.949Z,36.80
2019-04-10T09:57:22.453Z,36.10
2019-04-10T09:58:26.752Z,35.80
2019-04-10T09:59:36.001Z,35.80
2019-04-10T10:00:36.871Z,35.90
2019-04-10T10:01:42.217Z,36.00
2019-04-10T10:02:47.295Z,35.40
2019-04-10T10:03:52.701Z,35.60
2019-04-10T10:04:57.804Z,35.40
2019-04-10T10:06:02.160Z,34.60
2019-04-10T10:07:06.429Z,34.10
2019-04-10T10:08:10.670Z,34.60
2019-04-10T10:09:14.875Z,35.00
2019-04-10T10:10:19.115Z,35.60
2019-04-10T10:11:24.291Z,36.00
2019-04-10T10:12:29.004Z,35.30
2019-04-10T10:13:33.947Z,35.00
2019-04-10T10:14:38.297Z,35.00
2019-04-10T10:15:43.198Z,34.80
2019-04-10T10:16:48.373Z,35.10
2019-04-10T10:17:52.945Z,35.60
2019-04-10T10:18:57.398Z,35.90
2019-04-10T10:20:01.864Z,35.90
2019-04-10T10:21:06.129Z,36.40
2019-04-10T10:22:10.395Z,36.90
2019-04-10T10:23:15.758Z,37.40
2019-04-10T10:24:20.143Z,37.60
2019-04-10T10:25:24.363Z,37.50
2019-04-10T10:26:28.650Z,37.30
2019-04-10T10:27:32.893Z,36.50
2019-04-10T10:28:37.412Z,36.40
2019-04-10T10:29:41.944Z,36.80
2019-04-10T10:30:47.299Z,37.00
2019-04-10T10:31:52.586Z,36.70
2019-04-10T10:32:57.584Z,36.30
2019-04-10T10:34:01.955Z,35.80
2019-04-10T10:35:07.167Z,35.70
2019-04-10T10:36:11.668Z,35.40
2019-04-10T10:37:16.665Z,35.80
2019-04-10T10:38:21.169Z,36.20
2019-04-10T10:39:26.438Z,36.60
2019-04-10T10:40:31.749Z,36.60
2019-04-10T10:41:36.252Z,36.80
2019-04-10T10:42:41.462Z,37.00
2019-04-10T10:43:46.733Z,37.30
2019-04-10T10:44:51.139Z,37.30
2019-04-10T10:45:55.466Z,37.40
2019-04-10T10:47:00.073Z,37.80
2019-04-10T10:48:08.210Z,38.00
2019-04-10T10:49:10.460Z,38.20
2019-04-10T10:50:15.184Z,38.30
2019-04-10T10:51:20.410Z,38.10
2019-04-10T10:52:25.668Z,38.30
2019-04-10T10:53:30.385Z,38.10
2019-04-10T10:54:34.914Z,38.10
2019-04-10T10:55:39.951Z,37.90
2019-04-10T10:56:44.718Z,37.60
2019-04-10T10:57:49.163Z,37.70
2019-04-10T10:58:54.736Z,38.00
2019-04-10T10:59:59.863Z,38.50
2019-04-10T11:01:05.293Z,38.70
2019-04-10T11:02:10.672Z,39.00
2019-04-10T11:03:16.108Z,37.70
2019-04-10T11:04:21.087Z,36.60
2019-04-10T11:05:25.420Z,35.10
2019-04-10T11:06:29.655Z,34.10
2019-04-10T11:07:35.134Z,33.20
2019-04-10T11:08:39.807Z,32.90
2019-04-10T11:09:44.507Z,32.50
2019-04-10T11:11:55.876Z,33.10
2019-04-10T11:13:00.269Z,33.30
2019-04-10T11:14:05.839Z,32.80
2019-04-10T11:15:10.451Z,32.40
2019-04-10T11:16:14.784Z,32.60
2019-04-10T11:17:19.931Z,33.00
2019-04-10T11:18:24.755Z,33.00
2019-04-10T11:19:29.185Z,33.70
2019-04-10T11:20:34.003Z,34.30
2019-04-10T11:21:38.979Z,33.20
2019-04-10T11:22:43.267Z,33.20
2019-04-10T11:23:49.205Z,33.30
2019-04-10T11:24:53.824Z,32.20
2019-04-10T11:25:58.051Z,32.00
2019-04-10T11:27:02.784Z,32.20
2019-04-10T11:28:07.724Z,32.40
2019-04-10T11:29:14.219Z,32.60
2019-04-10T11:30:18.468Z,32.20
2019-04-10T11:31:23.850Z,32.70
2019-04-10T11:32:28.950Z,33.20
2019-04-10T11:33:34.816Z,33.90
2019-04-10T11:34:40.712Z,34.40
2019-04-10T11:35:45.882Z,34.80
2019-04-10T11:37:59.270Z,35.60
2019-04-10T11:40:08.946Z,34.20
2019-04-10T11:41:14.866Z,33.40
2019-04-10T11:42:21.211Z,32.60
2019-04-10T11:43:26.204Z,32.40
2019-04-10T11:44:33.577Z,32.50
2019-04-10T11:45:43.094Z,32.50
2019-04-10T11:46:43.900Z,31.30
2019-04-10T11:47:50.732Z,30.00
2019-04-10T11:48:55.375Z,29.00
2019-04-10T11:50:01.616Z,28.30
2019-04-10T11:51:09.352Z,28.30
2019-04-10T11:52:14.474Z,28.20
2019-04-10T11:53:19.121Z,28.70
2019-04-10T11:54:26.613Z,29.10
2019-04-10T11:55:29.745Z,29.20
2019-04-10T11:56:35.680Z,29.60
2019-04-10T11:57:41.931Z,29.70
2019-04-10T11:58:51.234Z,29.30
2019-04-10T11:59:54.428Z,29.40
2019-04-10T12:01:00.158Z,30.00
2019-04-10T12:02:06.651Z,30.70
2019-04-10T12:03:10.535Z,31.20
2019-04-10T12:04:19.267Z,31.30
2019-04-10T12:05:22.036Z,31.70
2019-04-10T12:06:29.751Z,31.10
2019-04-10T12:09:04.217Z,31.10
2019-04-10T12:11:05.449Z,30.00
2019-04-10T12:11:55.879Z,29.80
2019-04-10T12:13:00.235Z,29.20
2019-04-10T12:14:04.965Z,29.00
2019-04-10T12:15:10.190Z,28.10
2019-04-10T12:16:14.790Z,27.40
2019-04-10T12:17:20.092Z,26.90
2019-04-10T12:18:24.702Z,26.90
2019-04-10T12:19:29.141Z,27.50
2019-04-10T12:20:33.417Z,27.80
2019-04-10T12:21:37.976Z,28.10
2019-04-10T12:22:42.396Z,28.40
2019-04-10T12:23:47.366Z,28.40
2019-04-10T12:24:51.730Z,27.80
2019-04-10T12:25:55.958Z,27.70
2019-04-10T12:27:00.402Z,27.90
2019-04-10T12:28:05.433Z,28.30
2019-04-10T12:29:10.741Z,28.90
2019-04-10T12:30:15.334Z,29.50
2019-04-10T12:31:19.778Z,29.70
2019-04-10T12:32:24.945Z,29.50
2019-04-10T12:33:29.667Z,28.50
2019-04-10T12:34:34.161Z,27.90
2019-04-10T12:35:38.416Z,28.00
2019-04-10T12:36:42.745Z,28.30
2019-04-10T12:37:57.261Z,28.80
2019-04-10T12:38:54.079Z,28.50
2019-04-10T12:39:58.339Z,28.40
2019-04-10T12:41:03.366Z,28.20
2019-04-10T12:42:07.950Z,27.80
2019-04-10T12:43:12.674Z,27.80
2019-04-10T12:44:17.805Z,27.90
2019-04-10T12:45:22.289Z,28.00
2019-04-10T12:46:26.835Z,28.10
2019-04-10T12:47:32.149Z,27.00
2019-04-10T12:48:36.879Z,26.20
2019-04-10T12:49:41.478Z,25.10
2019-04-10T12:50:45.824Z,24.50
2019-04-10T12:51:50.102Z,24.30
2019-04-10T12:52:54.728Z,23.70
2019-04-10T12:53:59.010Z,23.30
2019-04-10T12:55:03.946Z,23.10
2019-04-10T12:56:08.311Z,23.10
2019-04-10T12:57:12.751Z,23.20
2019-04-10T12:58:18.058Z,23.30
2019-04-10T12:59:23.572Z,23.40
2019-04-10T13:00:27.900Z,23.40
2019-04-10T13:01:32.943Z,23.40
2019-04-10T13:02:37.239Z,23.00
2019-04-10T13:03:41.467Z,22.50
2019-04-10T13:04:46.940Z,22.20
2019-04-10T13:05:51.588Z,22.00
2019-04-10T13:06:56.906Z,21.80
2019-04-10T13:08:13.911Z,21.80
2019-04-10T13:09:12.013Z,21.70
2019-04-10T13:10:14.850Z,21.80
2019-04-10T13:11:20.424Z,21.60
2019-04-10T13:12:25.065Z,21.80
2019-04-10T13:13:30.253Z,22.00
2019-04-10T13:14:34.873Z,22.20
2019-04-10T13:15:39.396Z,22.50
2019-04-10T13:16:44.576Z,22.50
2019-04-10T13:17:49.133Z,22.70
2019-04-10T13:18:54.448Z,22.80
2019-04-10T13:19:59.651Z,22.80
2019-04-10T13:21:04.256Z,22.80
2019-04-10T13:22:09.549Z,22.50
2019-04-10T13:23:16.016Z,22.20
2019-04-10T13:24:19.848Z,21.70
2019-04-10T13:25:24.084Z,21.50
2019-04-10T13:26:28.344Z,21.40
2019-04-10T13:27:32.722Z,21.20
2019-04-10T13:28:37.094Z,21.00
2019-04-10T13:29:42.606Z,20.90
2019-04-10T13:30:52.758Z,20.60
2019-04-10T13:31:53.665Z,20.50
2019-04-10T13:32:58.277Z,20.60
2019-04-10T13:34:02.836Z,20.80
2019-04-10T13:35:08.106Z,20.70
2019-04-10T13:36:13.237Z,20.40
2019-04-10T13:37:17.967Z,20.20
2019-04-10T13:38:27.664Z,20.10
2019-04-10T13:39:28.177Z,20.10
2019-04-10T13:40:32.528Z,20.20
2019-04-10T13:41:36.782Z,20.20
2019-04-10T13:42:41.202Z,20.30
2019-04-10T13:43:46.389Z,20.30
2019-04-10T13:44:50.870Z,20.40
2019-04-10T13:45:56.194Z,20.30
2019-04-10T13:47:01.494Z,20.10
2019-04-10T13:48:06.139Z,19.50
2019-04-10T13:49:11.321Z,19.20
2019-04-10T13:50:16.820Z,19.20
2019-04-10T13:51:21.386Z,19.10
2019-04-10T13:52:25.948Z,19.00
2019-04-10T13:53:30.249Z,19.10
2019-04-10T13:54:34.614Z,19.20
2019-04-10T13:55:38.866Z,19.10
2019-04-10T13:56:43.392Z,19.10
2019-04-10T13:57:47.649Z,19.00
2019-04-10T13:58:52.780Z,18.70
2019-04-10T13:59:57.460Z,18.50
2019-04-10T14:01:03.017Z,18.30
2019-04-10T14:02:11.371Z,18.10
2019-04-10T14:03:16.474Z,18.00
2019-04-10T14:04:20.957Z,18.00
2019-04-10T14:05:25.216Z,18.10
2019-04-10T14:06:29.714Z,18.10
2019-04-10T14:07:34.097Z,18.20
2019-04-10T14:08:59.891Z,18.20
2019-04-10T14:09:48.890Z,18.00
2019-04-10T14:10:50.881Z,17.80
2019-04-10T14:11:55.482Z,17.80
2019-04-10T14:12:59.785Z,17.70
2019-04-10T14:14:04.496Z,17.90